createdAt,value
2017-09-19T00:02:24.112Z,12.97
2017-09-19T00:04:51.620Z,12.30
2017-09-19T00:07:19.872Z,12.53
2017-09-19T00:09:49.019Z,13.90
2017-09-19T00:12:16.577Z,12.20
2017-09-19T00:14:44.588Z,11.97
2017-09-19T00:17:12.106Z,12.57
2017-09-19T00:19:39.653Z,12.63
2017-09-19T00:22:07.169Z,12.53
2017-09-19T00:24:34.693Z,14.33
2017-09-19T00:27:02.196Z,12.20
2017-09-19T00:29:30.444Z,12.20
2017-09-19T00:31:57.965Z,12.50
2017-09-19T00:34:25.509Z,12.50
2017-09-19T00:36:52.996Z,11.80
2017-09-19T00:39:20.480Z,12.13
2017-09-19T00:41:47.997Z,13.70
2017-09-19T00:44:15.512Z,11.87
2017-09-19T00:46:43.122Z,12.47
2017-09-19T00:49:10.674Z,13.83
2017-09-19T00:51:38.164Z,13.10
2017-09-19T00:54:05.657Z,14.30
2017-09-19T00:56:33.974Z,13.37
2017-09-19T00:59:01.465Z,13.80
2017-09-19T01:01:28.987Z,14.13
2017-09-19T01:03:56.504Z,12.97
2017-09-19T01:06:24.790Z,12.20
2017-09-19T01:08:53.109Z,11.73
2017-09-19T01:11:20.616Z,13.77
2017-09-19T01:13:48.905Z,12.30
2017-09-19T01:16:17.189Z,12.40
2017-09-19T01:18:44.697Z,11.43
2017-09-19T01:21:12.227Z,11.30
2017-09-19T01:23:39.722Z,11.30
2017-09-19T01:26:07.345Z,11.00
2017-09-19T01:28:34.844Z,11.40
2017-09-19T01:31:02.459Z,12.23
2017-09-19T01:33:29.964Z,13.00
2017-09-19T01:35:57.481Z,12.17
2017-09-19T01:38:25.060Z,12.67
2017-09-19T01:40:52.602Z,11.80
2017-09-19T01:43:20.096Z,13.70
2017-09-19T01:45:47.585Z,12.90
2017-09-19T01:48:15.174Z,12.33
2017-09-19T01:50:42.688Z,12.73
2017-09-19T01:53:10.977Z,14.67
2017-09-19T01:55:39.256Z,14.70
2017-09-19T01:58:07.505Z,14.47
2017-09-19T02:00:35.007Z,15.33
2017-09-19T02:03:02.544Z,15.50
2017-09-19T02:05:30.812Z,16.20
2017-09-19T02:07:59.078Z,15.63
2017-09-19T02:10:26.598Z,16.60
2017-09-19T02:12:54.117Z,18.33
2017-09-19T02:15:22.393Z,16.93
2017-09-19T02:17:49.923Z,17.20
2017-09-19T02:20:17.437Z,18.40
2017-09-19T02:22:44.953Z,19.53
2017-09-19T02:25:13.262Z,18.23
2017-09-19T02:27:40.785Z,19.33
2017-09-19T02:30:09.065Z,21.27
2017-09-19T02:32:37.392Z,19.90
2017-09-19T02:35:04.942Z,19.47
2017-09-19T02:37:32.447Z,19.00
2017-09-19T02:40:00.058Z,18.20
2017-09-19T02:42:27.561Z,18.83
2017-09-19T02:44:55.082Z,20.07
2017-09-19T02:47:22.629Z,20.17
2017-09-19T02:49:50.141Z,20.50
2017-09-19T02:52:17.754Z,20.30
2017-09-19T02:54:45.292Z,20.40
2017-09-19T02:57:12.873Z,19.80
2017-09-19T02:59:40.392Z,18.80
2017-09-19T03:02:08.687Z,20.77
2017-09-19T03:04:36.195Z,22.23
2017-09-19T03:07:03.695Z,21.60
2017-09-19T03:09:31.993Z,21.93
2017-09-19T03:11:59.509Z,21.77
2017-09-19T03:14:27.044Z,23.63
2017-09-19T03:16:54.572Z,21.27
2017-09-19T03:19:22.076Z,21.83
2017-09-19T03:21:49.700Z,22.80
2017-09-19T03:24:17.240Z,22.83
2017-09-19T03:26:44.738Z,23.97
2017-09-19T03:29:12.243Z,21.60
2017-09-19T03:31:39.771Z,23.50
2017-09-19T03:34:07.293Z,21.57
2017-09-19T03:36:34.809Z,23.67
2017-09-19T03:39:03.116Z,22.03
2017-09-19T03:41:30.633Z,22.43
2017-09-19T03:43:58.917Z,23.87
2017-09-19T03:46:27.223Z,21.60
2017-09-19T03:48:54.727Z,23.87
2017-09-19T03:51:22.245Z,23.83
2017-09-19T03:53:49.783Z,26.13
2017-09-19T03:56:17.309Z,23.87
2017-09-19T03:58:44.837Z,22.37
2017-09-19T04:01:12.359Z,22.43
2017-09-19T04:03:39.858Z,22.17
2017-09-19T04:06:07.370Z,21.83
2017-09-19T04:08:34.891Z,23.60
2017-09-19T04:11:02.396Z,24.37
2017-09-19T04:13:29.951Z,23.10
2017-09-19T04:15:57.471Z,23.33
2017-09-19T04:18:25.735Z,22.67
2017-09-19T04:20:53.254Z,24.67
2017-09-19T04:23:20.792Z,24.17
2017-09-19T04:25:49.073Z,23.17
2017-09-19T04:28:16.590Z,24.07
2017-09-19T04:30:44.111Z,23.90
2017-09-19T04:33:11.651Z,23.97
2017-09-19T04:35:39.157Z,23.50
2017-09-19T04:38:06.693Z,23.10
2017-09-19T04:40:34.190Z,25.03
2017-09-19T04:43:01.709Z,23.10
2017-09-19T04:45:29.261Z,22.23
2017-09-19T04:47:56.933Z,23.07
2017-09-19T04:50:24.482Z,22.43
2017-09-19T04:52:51.997Z,23.60
2017-09-19T04:55:20.267Z,21.70
2017-09-19T04:57:47.802Z,22.60
2017-09-19T05:00:15.317Z,22.87
2017-09-19T05:02:42.827Z,23.30
2017-09-19T05:05:10.342Z,20.40
2017-09-19T05:07:37.911Z,21.97
2017-09-19T05:10:05.634Z,21.40
2017-09-19T05:12:33.913Z,18.80
2017-09-19T05:15:02.226Z,19.83
2017-09-19T05:17:29.723Z,21.13
2017-09-19T05:19:57.253Z,19.27
2017-09-19T05:22:24.765Z,19.30
2017-09-19T05:24:53.062Z,19.37
2017-09-19T05:27:20.638Z,18.80
2017-09-19T05:29:48.151Z,19.00
2017-09-19T05:32:16.428Z,18.47
2017-09-19T05:34:44.714Z,17.97
2017-09-19T05:37:12.976Z,17.27
2017-09-19T05:39:41.262Z,16.60
2017-09-19T05:42:09.577Z,16.70
2017-09-19T05:44:37.136Z,16.80
2017-09-19T05:47:04.660Z,15.87
2017-09-19T05:49:32.927Z,17.33
2017-09-19T05:52:01.229Z,17.60
2017-09-19T05:54:28.740Z,16.33
2017-09-19T05:56:56.279Z,18.10
2017-09-19T05:59:23.783Z,17.57
2017-09-19T06:01:52.085Z,15.70
2017-09-19T06:04:19.603Z,15.23
2017-09-19T06:06:47.867Z,15.33
2017-09-19T06:09:27.217Z,17.60
2017-09-19T06:11:54.715Z,16.80
2017-09-19T06:14:22.237Z,17.20
2017-09-19T06:16:49.755Z,17.83
2017-09-19T06:19:17.269Z,16.10
2017-09-19T06:21:45.565Z,17.10
2017-09-19T06:24:13.101Z,16.53
2017-09-19T06:26:41.371Z,17.40
2017-09-19T06:29:09.687Z,15.97
2017-09-19T06:31:37.245Z,16.80
2017-09-19T06:34:04.770Z,15.67
2017-09-19T06:36:33.058Z,16.43
2017-09-19T06:39:00.566Z,15.97
2017-09-19T06:41:28.089Z,17.23
2017-09-19T06:43:55.654Z,17.00
2017-09-19T06:46:23.155Z,16.50
2017-09-19T06:48:50.695Z,17.90
2017-09-19T06:51:18.202Z,16.03
2017-09-19T06:53:46.471Z,16.70
2017-09-19T06:56:14.760Z,15.83
2017-09-19T06:58:42.285Z,15.83
2017-09-19T07:01:11.310Z,15.50
2017-09-19T07:03:39.570Z,15.80
2017-09-19T07:06:07.843Z,17.57
2017-09-19T07:08:35.369Z,19.80
2017-09-19T07:11:02.892Z,18.90
2017-09-19T07:13:30.403Z,18.57
2017-09-19T07:15:58.681Z,21.30
2017-09-19T07:18:26.218Z,22.83
2017-09-19T07:20:53.721Z,25.33
2017-09-19T07:23:22.236Z,22.87
2017-09-19T07:25:50.102Z,25.97
2017-09-19T07:28:17.631Z,25.30
2017-09-19T07:30:45.917Z,26.40
2017-09-19T07:33:13.434Z,27.63
2017-09-19T07:35:40.964Z,26.80
2017-09-19T07:38:08.481Z,29.80
2017-09-19T07:40:36.823Z,28.07
2017-09-19T07:43:04.342Z,26.37
2017-09-19T07:45:31.880Z,26.80
2017-09-19T07:48:00.156Z,27.23
2017-09-19T07:50:28.458Z,28.47
2017-09-19T07:52:56.120Z,27.47
2017-09-19T07:55:23.678Z,29.47
2017-09-19T07:57:51.223Z,29.30
2017-09-19T08:00:18.718Z,26.90
2017-09-19T08:02:46.233Z,23.80
2017-09-19T08:05:13.769Z,27.33
2017-09-19T08:07:41.285Z,28.03
2017-09-19T08:10:08.797Z,27.47
2017-09-19T08:12:37.075Z,28.57
2017-09-19T08:15:05.358Z,29.43
2017-09-19T08:17:32.875Z,27.57
2017-09-19T08:20:00.371Z,29.40
2017-09-19T08:22:28.655Z,25.50
2017-09-19T08:24:56.152Z,26.37
2017-09-19T08:27:23.662Z,24.30
2017-09-19T08:29:51.964Z,26.60
2017-09-19T08:32:19.482Z,27.37
2017-09-19T08:34:47.769Z,25.83
2017-09-19T08:37:16.051Z,24.20
2017-09-19T08:39:44.329Z,24.80
2017-09-19T08:42:11.858Z,25.53
2017-09-19T08:44:39.370Z,22.40
2017-09-19T08:47:06.896Z,23.93
2017-09-19T08:49:35.163Z,25.33
2017-09-19T08:52:03.445Z,25.13
2017-09-19T08:54:31.754Z,25.40
2017-09-19T08:56:59.251Z,26.83
2017-09-19T08:59:26.766Z,24.00
2017-09-19T09:01:54.309Z,22.97
2017-09-19T09:04:21.821Z,23.37
2017-09-19T09:06:49.315Z,24.90
2017-09-19T09:09:17.599Z,25.97
2017-09-19T09:11:45.131Z,25.80
2017-09-19T09:14:12.637Z,24.87
2017-09-19T09:16:40.173Z,25.33
2017-09-19T09:19:08.448Z,28.47
2017-09-19T09:21:36.739Z,25.73
2017-09-19T09:24:04.335Z,30.90
2017-09-19T09:26:31.849Z,29.63
2017-09-19T09:28:59.370Z,29.60
2017-09-19T09:31:27.805Z,29.90
2017-09-19T09:33:55.317Z,28.50
2017-09-19T09:36:22.835Z,27.50
2017-09-19T09:38:50.362Z,27.07
2017-09-19T09:41:17.901Z,23.80
2017-09-19T09:43:46.163Z,26.90
2017-09-19T09:46:13.659Z,26.20
2017-09-19T09:48:41.189Z,29.37
2017-09-19T09:51:09.450Z,26.10
2017-09-19T09:53:38.483Z,24.73
2017-09-19T09:56:05.979Z,27.20
2017-09-19T09:58:33.479Z,27.77
2017-09-19T10:01:01.766Z,26.60
2017-09-19T10:03:30.042Z,27.47
2017-09-19T10:05:58.307Z,25.87
2017-09-19T10:08:26.600Z,26.70
2017-09-19T10:10:54.100Z,27.50
2017-09-19T10:13:21.629Z,25.60
2017-09-19T10:15:49.141Z,25.23
2017-09-19T10:18:16.669Z,25.60
2017-09-19T10:20:44.185Z,26.13
2017-09-19T10:23:12.486Z,26.00
2017-09-19T10:25:39.997Z,23.10
2017-09-19T10:28:07.545Z,25.33
2017-09-19T10:30:35.040Z,26.50
2017-09-19T10:33:02.624Z,29.00
2017-09-19T10:35:30.165Z,28.57
2017-09-19T10:37:57.677Z,29.17
2017-09-19T10:40:25.197Z,28.03
2017-09-19T10:42:52.716Z,26.10
2017-09-19T10:45:20.998Z,26.80
2017-09-19T10:47:49.295Z,26.63
2017-09-19T10:50:16.800Z,25.80
2017-09-19T10:52:44.318Z,27.63
2017-09-19T10:55:11.849Z,28.10
2017-09-19T10:57:40.110Z,31.63
2017-09-19T11:00:07.641Z,30.20
2017-09-19T11:02:35.160Z,30.10
2017-09-19T11:05:02.731Z,35.03
2017-09-19T11:07:30.231Z,31.73
2017-09-19T11:09:57.852Z,29.93
2017-09-19T11:12:25.509Z,30.40
2017-09-19T11:14:53.011Z,29.97
2017-09-19T11:17:21.327Z,29.30
2017-09-19T11:19:48.871Z,27.70
2017-09-19T11:22:17.150Z,29.40
2017-09-19T11:24:45.427Z,31.30
2017-09-19T11:27:13.731Z,32.63
2017-09-19T11:29:41.250Z,33.90
2017-09-19T11:32:09.557Z,34.40
2017-09-19T11:34:37.054Z,32.87
2017-09-19T11:37:04.551Z,34.93
2017-09-19T11:39:32.859Z,34.63
2017-09-19T11:42:00.368Z,33.73
2017-09-19T11:44:27.874Z,31.70
2017-09-19T11:46:55.399Z,29.33
2017-09-19T11:49:23.673Z,28.07
2017-09-19T11:51:51.965Z,24.20
2017-09-19T11:54:19.502Z,25.30
2017-09-19T11:56:47.767Z,25.23
2017-09-19T11:59:15.280Z,22.97
2017-09-19T12:01:42.797Z,25.27
2017-09-19T12:04:11.110Z,22.43
2017-09-19T12:06:38.611Z,22.33
2017-09-19T12:09:06.237Z,21.07
2017-09-19T12:11:33.774Z,23.63
2017-09-19T12:14:01.286Z,22.50
2017-09-19T12:16:28.806Z,24.10
2017-09-19T12:18:56.322Z,22.27
2017-09-19T12:21:23.836Z,25.27
2017-09-19T12:23:51.373Z,24.30
2017-09-19T12:26:18.871Z,22.33
2017-09-19T12:28:46.375Z,21.70
2017-09-19T12:31:14.681Z,22.00
2017-09-19T12:33:42.183Z,16.93
2017-09-19T12:36:09.705Z,17.33
2017-09-19T12:38:37.227Z,18.80
2017-09-19T12:41:05.514Z,19.30
2017-09-19T12:43:33.086Z,18.30
2017-09-19T12:46:00.607Z,19.60
2017-09-19T12:48:28.871Z,19.00
2017-09-19T12:50:56.375Z,19.30
2017-09-19T12:53:23.913Z,18.33
2017-09-19T12:55:52.222Z,17.63
2017-09-19T12:58:19.723Z,16.17
2017-09-19T13:00:47.247Z,16.50
2017-09-19T13:03:14.747Z,19.47
2017-09-19T13:05:43.028Z,19.90
2017-09-19T13:08:11.341Z,18.77
2017-09-19T13:10:38.834Z,19.87
2017-09-19T13:13:06.345Z,19.17
2017-09-19T13:15:33.876Z,20.30
2017-09-19T13:18:02.148Z,19.40
2017-09-19T13:20:30.450Z,18.17
2017-09-19T13:22:57.951Z,15.60
2017-09-19T13:25:25.446Z,13.27
2017-09-19T13:27:53.748Z,11.00
2017-09-19T13:30:21.319Z,13.20
2017-09-19T13:33:00.686Z,12.93
2017-09-19T13:35:28.183Z,14.03
2017-09-19T13:37:56.474Z,14.37
2017-09-19T13:40:23.994Z,14.37
2017-09-19T13:42:51.514Z,12.77
2017-09-19T13:45:19.062Z,14.23
2017-09-19T13:47:46.598Z,12.83
2017-09-19T13:50:14.867Z,13.63
2017-09-19T13:52:43.145Z,12.30
2017-09-19T13:55:11.469Z,11.83
2017-09-19T13:57:38.982Z,15.30
2017-09-19T14:00:07.265Z,11.87
2017-09-19T14:02:34.809Z,12.93
2017-09-19T14:05:03.121Z,13.43
2017-09-19T14:07:32.293Z,13.43
2017-09-19T14:09:59.841Z,12.40
2017-09-19T14:12:28.102Z,11.30
2017-09-19T14:14:56.362Z,13.10
2017-09-19T14:17:23.889Z,12.13
2017-09-19T14:19:51.444Z,11.43
2017-09-19T14:22:18.982Z,12.97
2017-09-19T14:24:47.243Z,10.97
2017-09-19T14:27:15.522Z,11.03
2017-09-19T14:29:43.825Z,10.67
2017-09-19T14:32:11.329Z,9.70
2017-09-19T14:34:38.831Z,10.50
2017-09-19T14:37:06.369Z,11.77
2017-09-19T14:39:34.682Z,11.83
2017-09-19T14:42:02.193Z,11.30
2017-09-19T14:44:29.801Z,10.90
2017-09-19T14:46:57.312Z,10.53
2017-09-19T14:49:24.834Z,9.77
2017-09-19T14:51:52.364Z,10.07
2017-09-19T14:54:19.882Z,10.07
2017-09-19T14:56:48.161Z,11.50
2017-09-19T14:59:16.450Z,10.77
2017-09-19T15:01:44.750Z,10.80
2017-09-19T15:04:12.264Z,9.53
2017-09-19T15:06:39.896Z,12.23
2017-09-19T15:09:07.481Z,10.90
2017-09-19T15:11:36.497Z,9.60
2017-09-19T15:14:04.773Z,10.20
2017-09-19T15:16:33.087Z,10.13
2017-09-19T15:19:00.587Z,11.70
2017-09-19T15:21:28.095Z,11.20
2017-09-19T15:23:55.606Z,13.23
2017-09-19T15:26:23.876Z,12.77
2017-09-19T15:28:51.399Z,12.30
2017-09-19T15:31:18.903Z,13.17
2017-09-19T15:33:46.435Z,12.40
2017-09-19T15:36:13.955Z,14.50
2017-09-19T15:38:41.529Z,12.53
2017-09-19T15:41:09.063Z,12.27
2017-09-19T15:43:37.341Z,12.80
2017-09-19T15:46:05.646Z,13.10
2017-09-19T15:48:33.151Z,12.20
2017-09-19T15:51:00.647Z,12.43
2017-09-19T15:53:28.172Z,12.40
2017-09-19T15:55:56.449Z,13.00
2017-09-19T15:58:24.039Z,12.80
2017-09-19T16:00:51.553Z,13.17
2017-09-19T16:03:19.096Z,14.37
2017-09-19T16:05:46.621Z,14.47
2017-09-19T16:08:14.132Z,15.83
2017-09-19T16:10:41.661Z,13.67
2017-09-19T16:13:09.175Z,14.43
2017-09-19T16:15:37.481Z,12.90
2017-09-19T16:18:05.042Z,13.73
2017-09-19T16:20:32.553Z,14.00
2017-09-19T16:23:00.084Z,15.40
2017-09-19T16:25:27.588Z,14.00
2017-09-19T16:27:55.133Z,14.50
2017-09-19T16:30:23.399Z,13.43
2017-09-19T16:32:50.913Z,14.43
2017-09-19T16:35:18.427Z,13.70
2017-09-19T16:37:46.705Z,15.10
2017-09-19T16:40:15.020Z,15.40
2017-09-19T16:42:43.301Z,16.30
2017-09-19T16:45:10.803Z,15.47
2017-09-19T16:47:38.341Z,15.37
2017-09-19T16:50:05.858Z,16.23
2017-09-19T16:52:33.360Z,15.60
2017-09-19T16:55:00.982Z,17.60
2017-09-19T16:57:28.542Z,16.63
2017-09-19T16:59:56.103Z,17.37
2017-09-19T17:02:23.603Z,19.43
2017-09-19T17:04:51.116Z,20.13
2017-09-19T17:07:18.639Z,19.60
2017-09-19T17:09:46.923Z,19.67
2017-09-19T17:12:15.201Z,19.30
2017-09-19T17:14:43.505Z,20.53
2017-09-19T17:17:11.004Z,23.20
2017-09-19T17:19:38.527Z,21.77
2017-09-19T17:22:06.053Z,20.53
2017-09-19T17:24:34.330Z,22.67
2017-09-19T17:27:02.624Z,25.13
2017-09-19T17:29:30.193Z,25.93
2017-09-19T17:31:57.734Z,22.20
2017-09-19T17:34:25.234Z,23.20
2017-09-19T17:36:52.739Z,25.97
2017-09-19T17:39:21.022Z,28.80
2017-09-19T17:41:48.536Z,23.10
2017-09-19T17:44:16.263Z,24.60
2017-09-19T17:46:43.762Z,23.77
2017-09-19T17:49:11.383Z,24.10
2017-09-19T17:51:38.903Z,23.90
2017-09-19T17:54:07.214Z,24.20
2017-09-19T17:56:34.735Z,24.77
2017-09-19T17:59:03.009Z,24.10
2017-09-19T18:01:31.338Z,22.70
2017-09-19T18:03:58.860Z,22.97
2017-09-19T18:06:27.135Z,24.97
2017-09-19T18:08:55.446Z,24.33
2017-09-19T18:11:22.965Z,25.03
2017-09-19T18:13:50.483Z,28.20
2017-09-19T18:16:18.009Z,27.10
2017-09-19T18:18:45.511Z,26.57
2017-09-19T18:21:13.034Z,27.53
2017-09-19T18:23:40.574Z,27.90
2017-09-19T18:26:08.079Z,29.57
2017-09-19T18:28:35.649Z,28.70
2017-09-19T18:31:03.171Z,26.17
2017-09-19T18:33:30.685Z,28.73
2017-09-19T18:35:58.988Z,28.90
2017-09-19T18:38:26.504Z,28.60
2017-09-19T18:40:54.026Z,28.70
2017-09-19T18:43:21.563Z,31.63
2017-09-19T18:45:49.066Z,34.17
2017-09-19T18:48:16.590Z,42.00
2017-09-19T18:50:44.133Z,36.20
2017-09-19T18:53:11.635Z,32.80
2017-09-19T18:55:39.165Z,34.10
2017-09-19T18:58:06.691Z,31.50
2017-09-19T19:00:34.955Z,32.77
2017-09-19T19:03:03.278Z,33.53
2017-09-19T19:05:30.803Z,31.60
2017-09-19T19:07:59.081Z,32.80
2017-09-19T19:10:27.346Z,32.80
2017-09-19T19:12:55.652Z,34.80
2017-09-19T19:15:23.155Z,32.90
2017-09-19T19:17:50.655Z,35.63
2017-09-19T19:20:18.205Z,35.90
2017-09-19T19:22:46.491Z,34.93
2017-09-19T19:25:13.998Z,34.33
2017-09-19T19:27:41.536Z,36.73
2017-09-19T19:30:09.030Z,38.00
2017-09-19T19:32:36.557Z,37.73
2017-09-19T19:35:04.098Z,39.77
2017-09-19T19:37:31.599Z,33.87
2017-09-19T19:39:59.112Z,36.90
2017-09-19T19:42:26.652Z,36.50
2017-09-19T19:44:54.935Z,37.77
2017-09-19T19:47:22.453Z,38.17
2017-09-19T19:49:51.510Z,39.60
2017-09-19T19:52:19.017Z,39.63
2017-09-19T19:54:46.628Z,39.33
2017-09-19T19:57:14.155Z,36.60
2017-09-19T19:59:42.419Z,37.90
2017-09-19T20:02:10.682Z,38.90
2017-09-19T20:04:38.213Z,38.40
2017-09-19T20:07:05.715Z,38.07
2017-09-19T20:09:33.983Z,38.60
2017-09-19T20:12:02.275Z,39.03
2017-09-19T20:14:30.558Z,37.10
2017-09-19T20:16:58.059Z,38.27
2017-09-19T20:19:25.579Z,38.90
2017-09-19T20:21:53.093Z,39.47
2017-09-19T20:24:20.620Z,39.50
2017-09-19T20:26:48.124Z,40.43
2017-09-19T20:29:15.639Z,42.87
2017-09-19T20:31:43.140Z,42.13
2017-09-19T20:34:10.667Z,40.43
2017-09-19T20:36:38.163Z,38.03
2017-09-19T20:39:06.422Z,39.10
2017-09-19T20:41:33.939Z,42.37
2017-09-19T20:44:01.450Z,39.53
2017-09-19T20:46:28.962Z,40.53
2017-09-19T20:48:56.505Z,44.60
2017-09-19T20:51:24.023Z,43.00
2017-09-19T20:53:51.585Z,44.00
2017-09-19T20:56:19.101Z,47.80
2017-09-19T20:58:46.646Z,43.50
2017-09-19T21:01:14.189Z,49.13
2017-09-19T21:03:47.338Z,44.40
2017-09-19T21:06:20.477Z,42.70
2017-09-19T21:08:53.645Z,44.70
2017-09-19T21:11:26.985Z,47.10
2017-09-19T21:14:00.157Z,42.40
2017-09-19T21:16:33.525Z,44.43
2017-09-19T21:19:07.537Z,46.00
2017-09-19T21:21:35.089Z,45.43
2017-09-19T21:24:04.098Z,44.10
2017-09-19T21:26:32.424Z,43.93
2017-09-19T21:28:59.962Z,46.27
2017-09-19T21:31:27.543Z,44.60
2017-09-19T21:33:55.053Z,44.30
2017-09-19T21:36:23.342Z,44.80
2017-09-19T21:38:51.747Z,43.90
2017-09-19T21:41:19.323Z,43.77
2017-09-19T21:43:46.878Z,43.93
2017-09-19T21:46:14.393Z,41.93
2017-09-19T21:48:42.654Z,41.70
2017-09-19T21:51:10.193Z,39.27
2017-09-19T21:53:37.701Z,40.57
2017-09-19T21:56:05.276Z,41.90
2017-09-19T21:58:32.820Z,40.07
2017-09-19T22:01:00.451Z,38.73
2017-09-19T22:03:28.714Z,38.37
2017-09-19T22:05:56.243Z,41.23
2017-09-19T22:08:23.751Z,39.23
2017-09-19T22:10:52.043Z,39.40
2017-09-19T22:13:19.591Z,37.90
2017-09-19T22:15:47.863Z,37.80
2017-09-19T22:18:16.127Z,39.40
2017-09-19T22:20:43.667Z,39.60
2017-09-19T22:23:11.191Z,40.80
2017-09-19T22:25:38.701Z,39.07
2017-09-19T22:28:07.010Z,38.00
2017-09-19T22:30:34.523Z,40.40
2017-09-19T22:33:02.838Z,38.03
2017-09-19T22:35:31.137Z,41.07
2017-09-19T22:37:58.656Z,38.37
2017-09-19T22:40:26.965Z,38.40
2017-09-19T22:42:54.486Z,40.50
2017-09-19T22:45:21.996Z,40.37
2017-09-19T22:47:49.512Z,39.90
2017-09-19T22:50:17.793Z,40.27
2017-09-19T22:52:46.076Z,38.70
2017-09-19T22:55:13.607Z,40.00
2017-09-19T22:57:41.111Z,43.03
2017-09-19T23:00:08.626Z,39.17
2017-09-19T23:02:36.922Z,42.30
2017-09-19T23:05:04.449Z,42.60
2017-09-19T23:07:31.946Z,40.00
2017-09-19T23:09:59.493Z,40.17
2017-09-19T23:12:27.774Z,42.13
2017-09-19T23:14:56.040Z,40.80
2017-09-19T23:17:24.330Z,42.23
2017-09-19T23:19:51.835Z,37.30
2017-09-19T23:22:19.390Z,38.30
2017-09-19T23:24:46.929Z,39.97
2017-09-19T23:27:14.447Z,38.90
2017-09-19T23:29:42.732Z,37.43
2017-09-19T23:32:11.040Z,37.10
2017-09-19T23:34:38.538Z,39.03
2017-09-19T23:37:06.055Z,38.40
2017-09-19T23:39:33.588Z,36.87
2017-09-19T23:42:01.871Z,37.17
2017-09-19T23:44:29.397Z,35.87
2017-09-19T23:46:57.705Z,35.77
2017-09-19T23:49:25.287Z,38.17
2017-09-19T23:51:52.806Z,36.07
2017-09-19T23:54:21.094Z,37.20
2017-09-19T23:56:49.364Z,34.87
2017-09-19T23:59:19.792Z,37.43
